This is the latest recevied weather packets stored in our database for station/object SR4DIG-13. If no packets are shown the sender has not sent any weather packets the latest 10 day(s).
| Time | Temp. | Humidity | Pressure | Rain* | Wind** | Luminosity | Snow |
|---|---|---|---|---|---|---|---|
| 1787840960 | 22.78° C | 45% | 1023.8 hPa | 0 mm | - | - | - |
| 1787840659 | 23.33° C | 43% | 1023.9 hPa | 0 mm | - | - | - |
| 1787840358 | 25° C | 41% | 1023.9 hPa | 0 mm | - | - | - |
| 1787840057 | 25.56° C | 40% | 1023.9 hPa | 0 mm | - | - | - |
| 1787839455 | 25.56° C | 39% | 1023.9 hPa | 0 mm | - | - | - |
| 1787839154 | 25° C | 40% | 1023.9 hPa | 0 mm | - | - | - |
| 1787838797 | 25.56° C | 40% | 1023.9 hPa | 0 mm | - | - | - |
| 1787838326 | 26.11° C | 39% | 1023.9 hPa | 0 mm | - | - | - |
| 1787838025 | 26.11° C | 39% | 1023.9 hPa | 0 mm | - | - | - |
| 1787837725 | 26.11° C | 39% | 1023.9 hPa | 0 mm | - | - | - |
| 1787837424 | 26.11° C | 40% | 1024 hPa | 0 mm | - | - | - |
| 1787837123 | 25.56° C | 40% | 1024.1 hPa | 0 mm | - | - | - |
| 1787836822 | 25.56° C | 40% | 1024.1 hPa | 0 mm | - | - | - |
| 1787836527 | 25° C | 43% | 1024.1 hPa | 0 mm | - | - | - |
| 1787836220 | 23.89° C | 44% | 1024 hPa | 0 mm | - | - | - |
| 1787835919 | 22.78° C | 45% | 1024.1 hPa | 0 mm | - | - | - |
| 1787835618 | 22.78° C | 45% | 1024 hPa | 0 mm | - | - | - |
| 1787835317 | 23.89° C | 43% | 1024.1 hPa | 0 mm | - | - | - |
| 1787835016 | 24.44° C | 40% | 1024 hPa | 0 mm | - | - | - |
| 1787834715 | 26.11° C | 38% | 1024.2 hPa | 0 mm | - | - | - |
| 1787834414 | 27.22° C | 36% | 1024.3 hPa | 0 mm | - | - | - |
| 1787834114 | 26.11° C | 38% | 1024.3 hPa | 0 mm | - | - | - |
| 1787833813 | 25.56° C | 37% | 1024.2 hPa | 0 mm | - | - | - |
| 1787833512 | 28.33° C | 35% | 1024.2 hPa | 0 mm | - | - | - |
| 1787833211 | 28.33° C | 36% | 1024.2 hPa | 0 mm | - | - | - |
* Rain latest hour (hover to see other rain measurements)
** Current wind speed in m/s (hover to see current wind gust speed)